Hovedside
METAR-TAF:

METAR-TAF

Lufthavner :

Växjö lufthavn

Växjö, Sverige

breddegrad: 56-51N, lengdegrad: 014-50E, høyde over havet: 199 m

Gjeldene værobservasjon

Denne rapporten ble laget for 18 minutter siden, klokken 09:50 UTC
Vind 11 kt fra Vest, skiftende mellom Vest-sørvest og Vest-nordvest
Temperatur 16°C
Luftfuktighet 68%
Trykk 1010 hPa
Sikt 10 km eller mer
Få skyer i en høyde av 3000 ft
Brutte skyer i en høyde av 4700 ft

METAR: ESMX 190950Z 27011KT 240V300 9999 FEW030 BKN047 16/10 Q1010

Tid: 12:08 (10:08 UTC)

Varsel

Denne rapporten ble laget for 1 time og 38 minutter siden, klokken 08:30 UTC
Varsel gyldig fra 19. klokken 09 UTC til 19. klokken 18 UTC
Vind 10 kt fra Vest
Sikt 10 km eller mer
Spredte skyer i en høyde av 3000 ft

TAF: ESMX 190830Z 1909/1918 28010KT 9999 SCT030

Værobservasjoner og værvarsel for over 4000 flyplasser (METAR- og TAF-rapporter).

Tilgjengelige stasjoner er representert av de røde og gule prikkene på kartet.

Hold musepekeren over prikken for å se navnet på stasjonen.

Klikk så for å se værobservasjoner og -varsler.

For å forandre kartet kan du klikke på den grønne knappen med svart kryss for å zoome inn, på den grønne knappen med strek for å zoome ut, eller på de grønne pilene for å se tilstøtende kart.


METAR-TAF: